DTTZ

Tozeur Nefta International Airport

Tozeur, Tunisia
METAR DTTZ 161500Z 04012KT 9999 SCT033 24/12 Q1012 NOSIG
Observed Flight Rules
Nov-16 @ 15:00 UTC (an hour ago) Visual Flight Rules
Wind Visibility Clouds
40° at 12 knots 10,000+ meters
  • Scattered at 3,300' AGL
Temperatures Readings
Current 24°C / 75°F
Dewpoint 12°C / 54°F
Humidity 47%
Altimeter 29.88" Hg
Pressure 1012 hPa
Elevation 93
METAR DTTZ 161500Z 04012KT 9999 SCT033 24/12 Q1012 NOSIG
Observed Flight Rules
Nov-16 @ 15:00 UTC
(an hour ago)
VFR
Wind Visibility
40° at 12 knots 10,000+ meters
Clouds
  • Scattered at 3,300' AGL
Temperature Dewpoint
24°C / 75°F 12°C / 54°F
Humidity Altimeter Pressure
47% 29.88" Hg 1012 hPa